createdAt,value
2018-06-17T00:00:59.357Z,0
2018-06-17T00:02:08.268Z,0
2018-06-17T00:03:17.132Z,0
2018-06-17T00:04:26.267Z,0
2018-06-17T00:05:35.129Z,0
2018-06-17T00:06:43.990Z,0
2018-06-17T00:07:52.951Z,0
2018-06-17T00:09:01.811Z,0
2018-06-17T00:10:11.235Z,0
2018-06-17T00:11:20.380Z,0
2018-06-17T00:12:29.242Z,0
2018-06-17T00:13:38.729Z,0
2018-06-17T00:14:47.593Z,0
2018-06-17T00:15:56.797Z,0
2018-06-17T00:17:05.596Z,0
2018-06-17T00:18:14.463Z,0
2018-06-17T00:19:23.472Z,0
2018-06-17T00:20:32.611Z,0
2018-06-17T00:21:41.472Z,0
2018-06-17T00:22:50.339Z,0
2018-06-17T00:23:59.198Z,0
2018-06-17T00:25:08.109Z,0
2018-06-17T00:26:16.972Z,0
2018-06-17T00:27:25.832Z,0
2018-06-17T00:28:34.696Z,0
2018-06-17T00:29:43.833Z,0
2018-06-17T00:30:52.695Z,0
2018-06-17T00:32:01.557Z,0
2018-06-17T00:33:10.693Z,0
2018-06-17T00:34:19.837Z,0
2018-06-17T00:35:28.975Z,0
2018-06-17T00:36:38.188Z,0
2018-06-17T00:37:47.050Z,0
2018-06-17T00:38:55.911Z,0
2018-06-17T00:40:04.774Z,0
2018-06-17T00:41:13.911Z,0
2018-06-17T00:42:22.872Z,0
2018-06-17T00:43:31.736Z,0
2018-06-17T00:44:40.595Z,0
2018-06-17T00:45:49.455Z,0
2018-06-17T00:46:58.315Z,0
2018-06-17T00:48:07.226Z,0
2018-06-17T00:49:16.087Z,0
2018-06-17T00:50:24.946Z,0
2018-06-17T00:51:33.808Z,0
2018-06-17T00:52:42.667Z,0
2018-06-17T00:53:51.890Z,0
2018-06-17T00:55:00.753Z,0
2018-06-17T00:56:09.892Z,0
2018-06-17T00:57:18.754Z,0
2018-06-17T00:58:27.613Z,0
2018-06-17T00:59:36.761Z,0
2018-06-17T01:00:45.621Z,0
2018-06-17T01:01:54.483Z,0
2018-06-17T01:03:03.347Z,0
2018-06-17T01:04:12.206Z,0
2018-06-17T01:05:21.169Z,0
2018-06-17T01:06:30.034Z,0
2018-06-17T01:07:38.890Z,0
2018-06-17T01:08:47.753Z,0
2018-06-17T01:09:56.612Z,0
2018-06-17T01:11:05.828Z,0
2018-06-17T01:12:14.686Z,0
2018-06-17T01:13:23.549Z,0
2018-06-17T01:14:32.410Z,0
2018-06-17T01:15:41.270Z,0
2018-06-17T01:16:50.560Z,0
2018-06-17T01:17:59.418Z,0
2018-06-17T01:19:08.670Z,0
2018-06-17T01:20:17.809Z,0
2018-06-17T01:21:26.669Z,0
2018-06-17T01:22:35.532Z,0
2018-06-17T01:23:44.392Z,0
2018-06-17T01:24:53.254Z,0
2018-06-17T01:26:02.388Z,0
2018-06-17T01:27:11.250Z,0
2018-06-17T01:28:20.213Z,0
2018-06-17T01:29:29.075Z,0
2018-06-17T01:30:37.936Z,0
2018-06-17T01:31:47.073Z,0
2018-06-17T01:32:55.932Z,0
2018-06-17T01:34:04.895Z,0
2018-06-17T01:35:13.761Z,0
2018-06-17T01:36:22.621Z,0
2018-06-17T01:37:31.532Z,0
2018-06-17T01:38:40.671Z,0
2018-06-17T01:39:49.582Z,0
2018-06-17T01:40:58.443Z,0
2018-06-17T01:42:07.307Z,0
2018-06-17T01:43:16.169Z,0
2018-06-17T01:44:25.028Z,0
2018-06-17T01:45:33.989Z,0
2018-06-17T01:46:43.129Z,0
2018-06-17T01:47:52.267Z,0
2018-06-17T01:49:01.127Z,0
2018-06-17T01:50:09.990Z,0
2018-06-17T01:51:18.851Z,0
2018-06-17T01:52:27.716Z,0
2018-06-17T01:53:36.854Z,0
2018-06-17T01:54:45.716Z,0
2018-06-17T01:55:54.850Z,0
2018-06-17T01:57:03.714Z,0
2018-06-17T01:58:12.573Z,0
2018-06-17T01:59:21.435Z,0
2018-06-17T02:00:30.975Z,0
2018-06-17T02:01:40.115Z,0
2018-06-17T02:02:49.026Z,0
2018-06-17T02:03:57.885Z,0
2018-06-17T02:05:07.031Z,0
2018-06-17T02:06:16.174Z,0
2018-06-17T02:07:25.035Z,0
2018-06-17T02:08:33.898Z,0
2018-06-17T02:09:42.762Z,0
2018-06-17T02:10:51.619Z,0
2018-06-17T02:12:00.777Z,0
2018-06-17T02:13:09.637Z,0
2018-06-17T02:14:18.598Z,0
2018-06-17T02:15:27.741Z,0
2018-06-17T02:16:37.431Z,0
2018-06-17T02:17:46.292Z,0
2018-06-17T02:18:55.152Z,0
2018-06-17T02:20:04.407Z,0
2018-06-17T02:21:13.271Z,0
2018-06-17T02:22:22.411Z,0
2018-06-17T02:23:31.271Z,0
2018-06-17T02:24:40.129Z,0
2018-06-17T02:25:49.041Z,0
2018-06-17T02:26:57.902Z,0
2018-06-17T02:28:06.765Z,0
2018-06-17T02:29:15.627Z,0
2018-06-17T02:30:25.053Z,0
2018-06-17T02:31:34.500Z,0
2018-06-17T02:32:43.916Z,0
2018-06-17T02:33:52.779Z,0
2018-06-17T02:35:02.210Z,0
2018-06-17T02:36:11.075Z,0
2018-06-17T02:37:20.596Z,0
2018-06-17T02:38:30.017Z,0
2018-06-17T02:39:39.157Z,0
2018-06-17T02:40:48.317Z,0
2018-06-17T02:41:57.453Z,0
2018-06-17T02:43:06.603Z,0
2018-06-17T02:44:16.039Z,0
2018-06-17T02:45:25.177Z,0
2018-06-17T02:46:34.600Z,0
2018-06-17T02:47:44.293Z,0
2018-06-17T02:48:53.217Z,0
2018-06-17T02:50:02.354Z,0
2018-06-17T02:51:11.214Z,5
2018-06-17T02:52:20.359Z,5
2018-06-17T02:53:29.506Z,5
2018-06-17T02:54:38.978Z,5
2018-06-17T02:55:48.118Z,5
2018-06-17T02:56:57.535Z,5
2018-06-17T02:58:06.398Z,5
2018-06-17T02:59:15.534Z,5
2018-06-17T03:00:24.408Z,5
2018-06-17T03:01:33.845Z,10
2018-06-17T03:02:42.990Z,10
2018-06-17T03:03:51.907Z,10
2018-06-17T03:05:00.719Z,10
2018-06-17T03:06:10.136Z,10
2018-06-17T03:07:19.278Z,10
2018-06-17T03:08:28.429Z,15
2018-06-17T03:09:37.579Z,15
2018-06-17T03:10:46.445Z,15
2018-06-17T03:11:55.409Z,15
2018-06-17T03:13:04.550Z,15
2018-06-17T03:14:13.687Z,20
2018-06-17T03:15:22.548Z,20
2018-06-17T03:16:31.694Z,20
2018-06-17T03:17:40.606Z,20
2018-06-17T03:18:49.743Z,25
2018-06-17T03:19:58.601Z,25
2018-06-17T03:21:07.741Z,25
2018-06-17T03:22:16.605Z,25
2018-06-17T03:23:25.561Z,30
2018-06-17T03:24:34.703Z,30
2018-06-17T03:25:43.840Z,30
2018-06-17T03:26:52.697Z,30
2018-06-17T03:28:01.559Z,35
2018-06-17T03:29:10.668Z,35
2018-06-17T03:30:19.542Z,35
2018-06-17T03:31:29.250Z,40
2018-06-17T03:32:38.115Z,40
2018-06-17T03:33:46.972Z,40
2018-06-17T03:34:55.834Z,40
2018-06-17T03:36:04.696Z,40
2018-06-17T03:37:13.556Z,45
2018-06-17T03:38:22.416Z,45
2018-06-17T03:39:31.277Z,45
2018-06-17T03:40:40.524Z,45
2018-06-17T03:41:49.381Z,45
2018-06-17T03:42:58.247Z,50
2018-06-17T03:44:07.389Z,50
2018-06-17T03:45:16.527Z,50
2018-06-17T03:46:25.438Z,50
2018-06-17T03:47:34.297Z,55
2018-06-17T03:48:43.157Z,55
2018-06-17T03:49:52.017Z,55
2018-06-17T03:51:00.884Z,60
2018-06-17T03:52:10.174Z,60
2018-06-17T03:53:19.318Z,60
2018-06-17T03:54:28.460Z,60
2018-06-17T03:55:37.321Z,65
2018-06-17T03:56:46.179Z,65
2018-06-17T03:57:55.670Z,65
2018-06-17T03:59:04.532Z,70
2018-06-17T04:00:13.394Z,70
2018-06-17T04:01:22.254Z,75
2018-06-17T04:02:31.118Z,80
2018-06-17T04:03:40.503Z,80
2018-06-17T04:04:49.362Z,75
2018-06-17T04:05:58.223Z,75
2018-06-17T04:07:07.094Z,80
2018-06-17T04:08:15.957Z,85
2018-06-17T04:09:24.817Z,90
2018-06-17T04:10:34.088Z,85
2018-06-17T04:11:42.950Z,90
2018-06-17T04:12:51.814Z,90
2018-06-17T04:14:00.962Z,85
2018-06-17T04:15:09.822Z,85
2018-06-17T04:16:18.965Z,80
2018-06-17T04:17:28.100Z,80
2018-06-17T04:18:36.961Z,75
2018-06-17T04:19:45.822Z,75
2018-06-17T04:20:55.163Z,80
2018-06-17T04:22:04.023Z,80
2018-06-17T04:23:13.168Z,90
2018-06-17T04:24:22.029Z,100
2018-06-17T04:25:30.923Z,100
2018-06-17T04:26:39.902Z,100
2018-06-17T04:27:48.760Z,100
2018-06-17T04:28:57.620Z,100
2018-06-17T04:30:07.066Z,95
2018-06-17T04:31:15.927Z,90
2018-06-17T04:32:24.790Z,95
2018-06-17T04:33:33.652Z,100
2018-06-17T04:34:42.514Z,105
2018-06-17T04:35:51.378Z,110
2018-06-17T04:37:00.238Z,110
2018-06-17T04:38:09.151Z,115
2018-06-17T04:39:18.009Z,115
2018-06-17T04:40:27.433Z,115
2018-06-17T04:41:36.568Z,110
2018-06-17T04:42:45.427Z,115
2018-06-17T04:43:54.667Z,115
2018-06-17T04:45:03.528Z,120
2018-06-17T04:46:12.947Z,130
2018-06-17T04:47:21.810Z,125
2018-06-17T04:48:30.723Z,125
2018-06-17T04:49:39.583Z,130
2018-06-17T04:50:48.449Z,135
2018-06-17T04:51:57.590Z,140
2018-06-17T04:53:06.741Z,150
2018-06-17T04:54:15.879Z,140
2018-06-17T04:55:24.841Z,145
2018-06-17T04:56:33.988Z,145
2018-06-17T04:57:42.850Z,155
2018-06-17T04:58:51.710Z,160
2018-06-17T05:00:00.897Z,155
2018-06-17T05:01:10.087Z,130
2018-06-17T05:02:18.955Z,125
2018-06-17T05:03:27.811Z,130
2018-06-17T05:04:36.674Z,135
2018-06-17T05:05:45.539Z,140
2018-06-17T05:06:54.397Z,150
2018-06-17T05:08:03.258Z,160
2018-06-17T05:09:12.400Z,170
2018-06-17T05:10:21.262Z,170
2018-06-17T05:11:30.124Z,160
2018-06-17T05:12:39.036Z,145
2018-06-17T05:13:47.899Z,155
2018-06-17T05:14:56.759Z,170
2018-06-17T05:16:05.620Z,200
2018-06-17T05:17:15.157Z,235
2018-06-17T05:18:24.368Z,215
2018-06-17T05:19:33.227Z,190
2018-06-17T05:20:42.092Z,190
2018-06-17T05:21:50.958Z,160
2018-06-17T05:23:00.099Z,155
2018-06-17T05:24:09.111Z,160
2018-06-17T05:25:17.970Z,160
2018-06-17T05:26:27.109Z,165
2018-06-17T05:27:35.971Z,165
2018-06-17T05:28:44.831Z,185
2018-06-17T05:29:54.018Z,205
2018-06-17T05:31:02.879Z,235
2018-06-17T05:32:11.739Z,220
2018-06-17T05:33:20.599Z,220
2018-06-17T05:34:29.456Z,225
2018-06-17T05:35:38.655Z,220
2018-06-17T05:36:47.513Z,210
2018-06-17T05:37:56.929Z,205
2018-06-17T05:39:05.789Z,215
2018-06-17T05:40:14.654Z,225
2018-06-17T05:41:23.517Z,235
2018-06-17T05:42:32.375Z,235
2018-06-17T05:43:41.239Z,245
2018-06-17T05:44:50.102Z,250
2018-06-17T05:45:58.963Z,255
2018-06-17T05:47:07.926Z,255
2018-06-17T05:48:16.788Z,255
2018-06-17T05:49:25.648Z,255
2018-06-17T05:50:34.510Z,255
2018-06-17T05:51:43.380Z,255
2018-06-17T05:52:52.243Z,260
2018-06-17T05:54:01.104Z,255
2018-06-17T05:55:09.969Z,255
2018-06-17T05:56:19.433Z,255
2018-06-17T05:57:28.298Z,265
2018-06-17T05:58:37.445Z,265
2018-06-17T05:59:46.586Z,270
2018-06-17T06:00:55.624Z,280
2018-06-17T06:02:04.502Z,275
2018-06-17T06:03:13.363Z,270
2018-06-17T06:04:22.504Z,260
2018-06-17T06:05:31.373Z,220
2018-06-17T06:06:41.925Z,170
2018-06-17T06:07:51.117Z,175
2018-06-17T06:08:59.978Z,195
2018-06-17T06:10:08.841Z,235
2018-06-17T06:11:17.704Z,310
2018-06-17T06:12:26.625Z,325
2018-06-17T06:13:35.480Z,320
2018-06-17T06:14:44.343Z,320
2018-06-17T06:15:53.209Z,310
2018-06-17T06:17:02.066Z,310
2018-06-17T06:18:10.981Z,320
2018-06-17T06:19:19.854Z,320
2018-06-17T06:20:28.716Z,310
2018-06-17T06:21:37.577Z,320
2018-06-17T06:22:46.440Z,295
2018-06-17T06:23:55.303Z,285
2018-06-17T06:25:04.167Z,265
2018-06-17T06:26:13.320Z,270
2018-06-17T06:27:22.733Z,285
2018-06-17T06:28:31.593Z,270
2018-06-17T06:29:40.813Z,250
2018-06-17T06:30:49.716Z,250
2018-06-17T06:31:58.540Z,265
2018-06-17T06:33:07.401Z,295
2018-06-17T06:34:16.266Z,320
2018-06-17T06:35:25.480Z,320
2018-06-17T06:36:34.345Z,320
2018-06-17T06:37:43.483Z,300
2018-06-17T06:38:52.346Z,310
2018-06-17T06:40:01.485Z,305
2018-06-17T06:41:10.771Z,280
2018-06-17T06:42:19.632Z,245
2018-06-17T06:43:28.497Z,205
2018-06-17T06:44:37.642Z,180
2018-06-17T06:45:46.900Z,170
2018-06-17T06:46:56.111Z,180
2018-06-17T06:48:04.977Z,165
2018-06-17T06:49:13.838Z,180
2018-06-17T06:50:22.702Z,170
2018-06-17T06:51:31.567Z,190
2018-06-17T06:52:40.533Z,195
2018-06-17T06:53:49.978Z,195
2018-06-17T06:54:59.117Z,205
2018-06-17T06:56:08.256Z,205
2018-06-17T06:57:17.119Z,270
2018-06-17T06:58:26.140Z,295
2018-06-17T06:59:34.999Z,285
2018-06-17T07:00:44.140Z,325
2018-06-17T07:01:53.004Z,300
2018-06-17T07:03:02.145Z,275
2018-06-17T07:04:11.005Z,340
2018-06-17T07:05:20.143Z,355
2018-06-17T07:06:29.099Z,380
2018-06-17T07:07:38.018Z,305
2018-06-17T07:08:47.104Z,275
2018-06-17T07:09:56.034Z,280
2018-06-17T07:11:04.893Z,290
2018-06-17T07:12:14.037Z,295
2018-06-17T07:13:22.898Z,295
2018-06-17T07:14:31.765Z,300
2018-06-17T07:15:40.677Z,205
2018-06-17T07:16:49.627Z,165
2018-06-17T07:17:58.401Z,170
2018-06-17T07:19:07.269Z,175
2018-06-17T07:20:16.132Z,180
2018-06-17T07:21:25.353Z,180
2018-06-17T07:22:34.217Z,200
2018-06-17T07:23:43.076Z,200
2018-06-17T07:24:52.213Z,210
2018-06-17T07:26:01.168Z,235
2018-06-17T07:27:10.047Z,260
2018-06-17T07:28:19.186Z,315
2018-06-17T07:29:28.333Z,340
2018-06-17T07:30:37.473Z,315
2018-06-17T07:31:46.337Z,305
2018-06-17T07:32:55.531Z,320
2018-06-17T07:34:04.393Z,315
2018-06-17T07:35:13.599Z,305
2018-06-17T07:36:23.398Z,270
2018-06-17T07:37:32.694Z,275
2018-06-17T07:38:41.607Z,310
2018-06-17T07:39:50.631Z,335
2018-06-17T07:40:59.836Z,290
2018-06-17T07:42:09.000Z,285
2018-06-17T07:43:18.487Z,345
2018-06-17T07:44:27.961Z,385
2018-06-17T07:45:37.064Z,375
2018-06-17T07:46:46.160Z,330
2018-06-17T07:47:55.483Z,320
2018-06-17T07:49:04.559Z,305
2018-06-17T07:50:14.253Z,350
2018-06-17T07:51:23.179Z,405
2018-06-17T07:52:32.362Z,360
2018-06-17T07:53:41.627Z,325
2018-06-17T07:54:50.751Z,365
2018-06-17T07:56:00.232Z,390
2018-06-17T07:57:09.647Z,355
2018-06-17T07:58:18.884Z,390
2018-06-17T07:59:28.060Z,410
2018-06-17T08:00:37.158Z,375
2018-06-17T08:01:46.642Z,365
2018-06-17T08:02:55.671Z,295
2018-06-17T08:04:04.860Z,235
2018-06-17T08:05:14.263Z,245
2018-06-17T08:06:23.468Z,300
2018-06-17T08:07:33.084Z,360
2018-06-17T08:08:42.181Z,375
2018-06-17T08:09:51.708Z,305
2018-06-17T08:11:01.984Z,240
2018-06-17T08:12:11.149Z,230
2018-06-17T08:13:20.696Z,250
2018-06-17T08:14:29.907Z,325
2018-06-17T08:15:38.771Z,405
2018-06-17T08:16:47.635Z,405
2018-06-17T08:17:56.778Z,450
2018-06-17T08:19:05.890Z,485
2018-06-17T08:20:15.159Z,505
2018-06-17T08:21:24.303Z,485
2018-06-17T08:22:33.167Z,490
2018-06-17T08:23:42.032Z,405
2018-06-17T08:24:51.325Z,365
2018-06-17T08:26:00.191Z,305
2018-06-17T08:27:09.055Z,255
2018-06-17T08:28:18.198Z,315
2018-06-17T08:29:27.063Z,325
2018-06-17T08:30:36.358Z,345
2018-06-17T08:31:45.179Z,390
2018-06-17T08:32:54.045Z,370
2018-06-17T08:34:02.917Z,350
2018-06-17T08:35:12.055Z,380
2018-06-17T08:36:21.294Z,480
2018-06-17T08:37:30.158Z,520
2018-06-17T08:38:39.299Z,480
2018-06-17T08:39:48.171Z,480
2018-06-17T08:40:57.364Z,480
2018-06-17T08:42:06.279Z,510
2018-06-17T08:43:15.144Z,615
2018-06-17T08:44:24.010Z,590
2018-06-17T08:45:33.431Z,540
2018-06-17T08:46:42.314Z,545
2018-06-17T08:47:51.531Z,560
2018-06-17T08:49:00.400Z,545
2018-06-17T08:50:09.535Z,580
2018-06-17T08:51:18.396Z,510
2018-06-17T08:52:27.259Z,530
2018-06-17T08:53:36.130Z,565
2018-06-17T08:54:44.995Z,585
2018-06-17T08:55:53.988Z,615
2018-06-17T08:57:02.848Z,605
2018-06-17T08:58:11.711Z,580
2018-06-17T08:59:20.579Z,465
2018-06-17T09:00:29.444Z,425
2018-06-17T09:01:38.591Z,435
2018-06-17T09:02:47.472Z,335
2018-06-17T09:03:56.337Z,240
2018-06-17T09:05:05.257Z,210
2018-06-17T09:06:14.129Z,205
2018-06-17T09:07:22.988Z,220
2018-06-17T09:08:31.849Z,205
2018-06-17T09:09:40.711Z,220
2018-06-17T09:10:49.826Z,265
2018-06-17T09:11:58.693Z,345
2018-06-17T09:13:07.870Z,395
2018-06-17T09:14:16.743Z,475
2018-06-17T09:15:25.882Z,565
2018-06-17T09:16:34.747Z,595
2018-06-17T09:17:43.612Z,610
2018-06-17T09:18:52.476Z,620
2018-06-17T09:20:01.346Z,595
2018-06-17T09:21:10.496Z,515
2018-06-17T09:22:19.685Z,515
2018-06-17T09:23:28.554Z,570
2018-06-17T09:24:37.416Z,605
2018-06-17T09:25:46.559Z,585
2018-06-17T09:26:55.422Z,545
2018-06-17T09:28:04.434Z,540
2018-06-17T09:29:13.301Z,480
2018-06-17T09:30:22.161Z,430
2018-06-17T09:31:31.314Z,405
2018-06-17T09:32:40.177Z,405
2018-06-17T09:33:49.366Z,525
2018-06-17T09:34:58.512Z,605
2018-06-17T09:36:07.654Z,665
2018-06-17T09:37:16.885Z,695
2018-06-17T09:38:26.027Z,695
2018-06-17T09:39:34.990Z,695
2018-06-17T09:40:43.960Z,680
2018-06-17T09:41:53.108Z,650
2018-06-17T09:43:02.097Z,645
2018-06-17T09:44:10.963Z,625
2018-06-17T09:45:19.987Z,600
2018-06-17T09:46:28.865Z,580
2018-06-17T09:47:37.748Z,520
2018-06-17T09:48:46.644Z,480
2018-06-17T09:49:55.843Z,465
2018-06-17T09:51:04.786Z,460
2018-06-17T09:52:13.652Z,460
2018-06-17T09:53:22.692Z,505
2018-06-17T09:54:31.837Z,525
2018-06-17T09:55:40.701Z,540
2018-06-17T09:56:49.938Z,575
2018-06-17T09:57:58.814Z,625
2018-06-17T09:59:07.970Z,635
2018-06-17T10:00:16.834Z,635
2018-06-17T10:01:25.926Z,620
2018-06-17T10:02:35.595Z,585
2018-06-17T10:03:44.491Z,570
2018-06-17T10:04:53.636Z,570
2018-06-17T10:06:02.500Z,570
2018-06-17T10:07:11.363Z,560
2018-06-17T10:08:20.553Z,555
2018-06-17T10:09:29.415Z,595
2018-06-17T10:10:38.296Z,625
2018-06-17T10:11:47.460Z,635
2018-06-17T10:12:56.323Z,640
2018-06-17T10:14:05.617Z,630
2018-06-17T10:15:14.483Z,580
2018-06-17T10:16:23.350Z,570
2018-06-17T10:17:32.491Z,660
2018-06-17T10:18:41.634Z,730
2018-06-17T10:19:50.601Z,675
2018-06-17T10:20:59.467Z,635
2018-06-17T10:22:08.333Z,660
2018-06-17T10:23:17.198Z,620
2018-06-17T10:24:26.351Z,595
2018-06-17T10:25:36.221Z,570
2018-06-17T10:26:45.362Z,555
2018-06-17T10:27:54.227Z,540
2018-06-17T10:29:03.091Z,615
2018-06-17T10:30:11.954Z,645
2018-06-17T10:31:20.822Z,645
2018-06-17T10:32:29.967Z,685
2018-06-17T10:33:38.832Z,695
2018-06-17T10:34:47.698Z,735
2018-06-17T10:35:56.844Z,710
2018-06-17T10:37:05.706Z,685
2018-06-17T10:38:15.691Z,655
2018-06-17T10:39:24.556Z,680
2018-06-17T10:40:33.422Z,715
2018-06-17T10:41:42.562Z,760
2018-06-17T10:42:51.577Z,885
2018-06-17T10:44:00.446Z,960
2018-06-17T10:45:09.304Z,955
2018-06-17T10:46:18.170Z,920
2018-06-17T10:47:27.037Z,870
2018-06-17T10:48:35.902Z,840
2018-06-17T10:49:44.767Z,760
2018-06-17T10:50:53.632Z,770
2018-06-17T10:52:02.498Z,780
2018-06-17T10:53:11.365Z,760
2018-06-17T10:54:20.378Z,765
2018-06-17T10:55:29.245Z,750
2018-06-17T10:56:38.492Z,795
2018-06-17T10:57:47.362Z,875
2018-06-17T10:58:56.229Z,885
2018-06-17T11:00:05.656Z,880
2018-06-17T11:01:14.883Z,885
2018-06-17T11:02:23.678Z,900
2018-06-17T11:03:32.542Z,910
2018-06-17T11:04:41.415Z,915
2018-06-17T11:05:50.787Z,915
2018-06-17T11:06:59.653Z,845
2018-06-17T11:08:08.797Z,825
2018-06-17T11:09:17.664Z,875
2018-06-17T11:10:26.533Z,720
2018-06-17T11:11:36.109Z,645
2018-06-17T11:12:44.975Z,675
2018-06-17T11:13:54.124Z,650
2018-06-17T11:15:02.992Z,455
2018-06-17T11:16:11.857Z,435
2018-06-17T11:17:21.327Z,465
2018-06-17T11:18:30.191Z,460
2018-06-17T11:19:39.059Z,510
2018-06-17T11:20:47.923Z,570
2018-06-17T11:21:56.787Z,565
2018-06-17T11:23:05.752Z,620
2018-06-17T11:24:14.616Z,685
2018-06-17T11:25:23.480Z,785
2018-06-17T11:26:32.677Z,815
2018-06-17T11:27:41.823Z,875
2018-06-17T11:28:51.021Z,860
2018-06-17T11:29:59.884Z,950
2018-06-17T11:31:09.027Z,985
2018-06-17T11:32:17.893Z,795
2018-06-17T11:33:26.754Z,710
2018-06-17T11:34:35.770Z,790
2018-06-17T11:35:44.637Z,925
2018-06-17T11:36:53.502Z,870
2018-06-17T11:38:02.372Z,915
2018-06-17T11:39:11.751Z,845
2018-06-17T11:40:20.600Z,730
2018-06-17T11:41:29.474Z,645
2018-06-17T11:42:38.615Z,565
2018-06-17T11:43:47.480Z,455
2018-06-17T11:44:56.345Z,380
2018-06-17T11:46:05.360Z,310
2018-06-17T11:47:14.229Z,250
2018-06-17T11:48:23.475Z,220
2018-06-17T11:49:32.632Z,245
2018-06-17T11:50:42.057Z,280
2018-06-17T11:51:51.603Z,335
2018-06-17T11:53:00.467Z,410
2018-06-17T11:54:09.331Z,475
2018-06-17T11:55:18.197Z,570
2018-06-17T11:56:27.620Z,875
2018-06-17T11:57:36.709Z,825
2018-06-17T11:58:45.855Z,990
2018-06-17T11:59:55.092Z,1015
2018-06-17T12:01:03.957Z,835
2018-06-17T12:02:12.823Z,770
2018-06-17T12:03:21.692Z,710
2018-06-17T12:04:30.652Z,600
2018-06-17T12:05:39.533Z,555
2018-06-17T12:06:48.537Z,595
2018-06-17T12:07:57.822Z,750
2018-06-17T12:09:06.741Z,855
2018-06-17T12:10:15.619Z,825
2018-06-17T12:11:24.789Z,705
2018-06-17T12:12:33.653Z,715
2018-06-17T12:13:42.520Z,770
2018-06-17T12:14:51.490Z,825
2018-06-17T12:16:00.354Z,895
2018-06-17T12:17:09.218Z,1005
2018-06-17T12:18:18.082Z,1025
2018-06-17T12:19:26.946Z,1040
2018-06-17T12:20:35.817Z,1005
2018-06-17T12:21:44.684Z,1010
2018-06-17T12:22:53.548Z,1015
2018-06-17T12:24:02.416Z,1020
2018-06-17T12:25:11.292Z,1020
2018-06-17T12:26:20.257Z,985
2018-06-17T12:27:29.123Z,955
2018-06-17T12:28:37.989Z,925
2018-06-17T12:29:46.853Z,930
2018-06-17T12:30:55.718Z,930
2018-06-17T12:32:04.685Z,895
2018-06-17T12:33:13.834Z,850
2018-06-17T12:34:22.702Z,825
2018-06-17T12:35:32.129Z,810
2018-06-17T12:36:40.996Z,770
2018-06-17T12:37:49.912Z,790
2018-06-17T12:38:58.778Z,705
2018-06-17T12:40:08.492Z,560
2018-06-17T12:41:17.360Z,490
2018-06-17T12:42:26.264Z,550
2018-06-17T12:43:35.130Z,550
2018-06-17T12:44:44.002Z,550
2018-06-17T12:45:53.142Z,590
2018-06-17T12:47:02.010Z,665
2018-06-17T12:48:10.971Z,645
2018-06-17T12:49:20.189Z,655
2018-06-17T12:50:29.729Z,685
2018-06-17T12:51:38.581Z,695
2018-06-17T12:52:47.450Z,725
2018-06-17T12:53:56.595Z,785
2018-06-17T12:55:05.531Z,855
2018-06-17T12:56:14.400Z,905
2018-06-17T12:57:23.545Z,915
2018-06-17T12:58:32.692Z,905
2018-06-17T12:59:41.560Z,900
2018-06-17T13:00:50.427Z,875
2018-06-17T13:01:59.330Z,905
2018-06-17T13:03:08.195Z,945
2018-06-17T13:04:17.344Z,1125
2018-06-17T13:05:26.527Z,1280
2018-06-17T13:06:36.107Z,1295
2018-06-17T13:07:44.972Z,1360
2018-06-17T13:08:53.838Z,1555
2018-06-17T13:10:02.706Z,1325
2018-06-17T13:11:11.576Z,1390
2018-06-17T13:12:20.452Z,1455
2018-06-17T13:13:29.600Z,1455
2018-06-17T13:14:38.481Z,1585
2018-06-17T13:15:47.349Z,1715
2018-06-17T13:16:56.498Z,1705
2018-06-17T13:18:05.745Z,1695
2018-06-17T13:19:14.640Z,1510
2018-06-17T13:20:23.772Z,1555
2018-06-17T13:21:32.650Z,1650
2018-06-17T13:22:41.512Z,1750
2018-06-17T13:23:50.534Z,1550
2018-06-17T13:24:59.403Z,1620
2018-06-17T13:26:08.371Z,1450
2018-06-17T13:27:17.240Z,1605
2018-06-17T13:28:26.424Z,1955
2018-06-17T13:29:35.344Z,2080
2018-06-17T13:30:44.217Z,2355
2018-06-17T13:31:53.088Z,2185
2018-06-17T13:33:01.984Z,2120
2018-06-17T13:34:10.827Z,1625
2018-06-17T13:35:19.849Z,845
2018-06-17T13:36:28.772Z,755
2018-06-17T13:37:37.921Z,750
2018-06-17T13:38:46.791Z,785
2018-06-17T13:39:55.659Z,1190
2018-06-17T13:41:04.582Z,1540
2018-06-17T13:42:13.453Z,1535
2018-06-17T13:43:22.597Z,870
2018-06-17T13:44:31.464Z,730
2018-06-17T13:45:40.339Z,630
2018-06-17T13:46:49.211Z,615
2018-06-17T13:47:58.079Z,705
2018-06-17T13:49:06.946Z,1040
2018-06-17T13:50:15.820Z,1975
2018-06-17T13:51:24.691Z,2425
2018-06-17T13:52:33.996Z,2865
2018-06-17T13:53:42.889Z,1935
2018-06-17T13:54:52.034Z,1325
2018-06-17T13:56:01.240Z,2545
2018-06-17T13:57:10.112Z,2865
2018-06-17T13:58:19.030Z,3290
2018-06-17T13:59:28.179Z,1615
2018-06-17T14:00:37.844Z,1300
2018-06-17T14:01:46.992Z,1575
2018-06-17T14:02:55.918Z,2110
2018-06-17T14:04:05.159Z,2565
2018-06-17T14:05:14.149Z,1525
2018-06-17T14:06:23.553Z,1555
2018-06-17T14:07:32.444Z,1360
2018-06-17T14:08:41.350Z,1810
2018-06-17T14:09:50.241Z,925
2018-06-17T14:10:59.114Z,745
2018-06-17T14:12:08.262Z,635
2018-06-17T14:13:17.352Z,555
2018-06-17T14:14:26.225Z,515
2018-06-17T14:15:35.346Z,520
2018-06-17T14:16:44.217Z,515
2018-06-17T14:17:53.100Z,525
2018-06-17T14:19:01.975Z,525
2018-06-17T14:20:11.124Z,485
2018-06-17T14:21:20.344Z,445
2018-06-17T14:22:29.214Z,395
2018-06-17T14:23:38.459Z,355
2018-06-17T14:24:47.327Z,285
2018-06-17T14:25:56.194Z,225
2018-06-17T14:27:05.452Z,180
2018-06-17T14:28:14.275Z,180
2018-06-17T14:29:23.141Z,200
2018-06-17T14:30:32.298Z,190
2018-06-17T14:31:41.167Z,175
2018-06-17T14:32:50.561Z,180
2018-06-17T14:33:59.452Z,200
2018-06-17T14:35:08.319Z,245
2018-06-17T14:36:17.240Z,330
2018-06-17T14:37:26.127Z,440
2018-06-17T14:38:35.391Z,470
2018-06-17T14:39:44.265Z,445
2018-06-17T14:40:53.123Z,435
2018-06-17T14:42:02.263Z,425
2018-06-17T14:43:11.145Z,410
2018-06-17T14:44:20.481Z,405
2018-06-17T14:45:29.339Z,395
2018-06-17T14:46:38.204Z,380
2018-06-17T14:47:47.071Z,360
2018-06-17T14:48:56.217Z,335
2018-06-17T14:50:05.235Z,330
2018-06-17T14:51:14.066Z,340
2018-06-17T14:52:22.933Z,375
2018-06-17T14:53:32.084Z,420
2018-06-17T14:54:40.956Z,485
2018-06-17T14:55:50.144Z,730
2018-06-17T14:56:59.289Z,925
2018-06-17T14:58:08.159Z,1005
2018-06-17T14:59:17.020Z,1120
2018-06-17T15:00:25.886Z,915
2018-06-17T15:01:34.802Z,810
2018-06-17T15:02:43.666Z,700
2018-06-17T15:03:53.077Z,615
2018-06-17T15:05:01.801Z,550
2018-06-17T15:06:10.666Z,510
2018-06-17T15:07:20.189Z,470
2018-06-17T15:08:29.338Z,435
2018-06-17T15:09:38.201Z,410
2018-06-17T15:10:47.403Z,395
2018-06-17T15:11:56.849Z,390
2018-06-17T15:13:06.347Z,370
2018-06-17T15:14:15.211Z,350
2018-06-17T15:15:24.135Z,315
2018-06-17T15:16:33.007Z,295
2018-06-17T15:17:41.880Z,280
2018-06-17T15:18:51.180Z,280
2018-06-17T15:20:00.058Z,285
2018-06-17T15:21:09.219Z,280
2018-06-17T15:22:18.076Z,280
2018-06-17T15:23:27.263Z,285
2018-06-17T15:24:36.470Z,305
2018-06-17T15:25:45.332Z,330
2018-06-17T15:26:54.205Z,355
2018-06-17T15:28:03.072Z,385
2018-06-17T15:29:11.989Z,410
2018-06-17T15:30:20.881Z,430
2018-06-17T15:31:29.747Z,450
2018-06-17T15:32:38.611Z,470
2018-06-17T15:33:47.485Z,470
2018-06-17T15:34:56.351Z,465
2018-06-17T15:36:05.799Z,450
2018-06-17T15:37:14.663Z,425
2018-06-17T15:38:23.530Z,400
2018-06-17T15:39:32.396Z,370
2018-06-17T15:40:41.545Z,380
2018-06-17T15:41:50.407Z,380
2018-06-17T15:42:59.277Z,390
2018-06-17T15:44:08.154Z,390
2018-06-17T15:45:17.006Z,375
2018-06-17T15:46:25.880Z,355
2018-06-17T15:47:34.748Z,320
2018-06-17T15:48:43.616Z,285
2018-06-17T15:49:52.481Z,245
2018-06-17T15:51:02.444Z,230
2018-06-17T15:52:11.604Z,230
2018-06-17T15:53:20.618Z,235
2018-06-17T15:54:29.531Z,255
2018-06-17T15:55:38.396Z,265
2018-06-17T15:56:47.259Z,280
2018-06-17T15:57:56.124Z,270
2018-06-17T15:59:05.327Z,255
2018-06-17T16:00:14.193Z,250
2018-06-17T16:01:23.060Z,260
2018-06-17T16:02:31.925Z,260
2018-06-17T16:03:40.794Z,255